Time;durP1;ratioP1;P1;durP2;ratioP2;P2;SDS_P1;SDS_P2;PMS_P1;PMS_P2;Temp;Humidity;BMP_temperature;BMP_pressure;BME280_temperature;BME280_humidity;BME280_pressure;Samples;Min_cycle;Max_cycle;Signal;HPM_P1;HPM_P2
2023/07/22 00:02:22;;;;;;;3.15;2.05;;;;;;;;;;5032019;28;20025;-70
2023/07/22 00:04:48;;;;;;;3.95;2.00;;;;;;;;;;5031921;28;20104;-69
2023/07/22 00:07:13;;;;;;;4.35;2.22;;;;;;;;;;5031613;28;20129;-67
2023/07/22 00:09:41;;;;;;;3.03;2.13;;;;;;;;;;5032063;28;20033;-70
2023/07/22 00:12:06;;;;;;;4.07;2.28;;;;;;;;;;5032177;28;20081;-69
2023/07/22 00:14:32;;;;;;;4.90;2.00;;;;;;;;;;5032042;28;20026;-69
2023/07/22 00:16:57;;;;;;;3.83;2.22;;;;;;;;;;5031833;28;20028;-68
2023/07/22 00:19:23;;;;;;;3.22;2.33;;;;;;;;;;5031935;28;20053;-69
2023/07/22 00:21:49;;;;;;;3.10;2.00;;;;;;;;;;5033377;28;20025;-74
2023/07/22 00:24:14;;;;;;;3.50;2.40;;;;;;;;;;5035880;28;20022;-73
2023/07/22 00:26:40;;;;;;;4.43;2.42;;;;;;;;;;5035837;28;20033;-75
2023/07/22 00:29:06;;;;;;;5.15;2.35;;;;;;;;;;5035774;28;20026;-75
2023/07/22 00:31:31;;;;;;;2.92;2.30;;;;;;;;;;5035841;28;20512;-71
2023/07/22 00:33:57;;;;;;;3.30;2.28;;;;;;;;;;5035618;28;20033;-72
2023/07/22 00:36:22;;;;;;;2.83;1.90;;;;;;;;;;5035380;28;20017;-70
2023/07/22 00:38:47;;;;;;;4.22;2.10;;;;;;;;;;5035454;28;20034;-66
2023/07/22 00:41:13;;;;;;;3.85;2.25;;;;;;;;;;5035681;28;20021;-74
2023/07/22 00:43:38;;;;;;;4.43;2.20;;;;;;;;;;5034913;28;20031;-68
2023/07/22 00:46:04;;;;;;;3.20;2.20;;;;;;;;;;5035643;28;20478;-65
2023/07/22 00:48:30;;;;;;;4.35;2.20;;;;;;;;;;5035396;28;20398;-66
2023/07/22 00:50:56;;;;;;;6.82;2.50;;;;;;;;;;5035157;28;20116;-66
2023/07/22 00:53:21;;;;;;;3.40;1.98;;;;;;;;;;5035339;28;20153;-66
2023/07/22 00:55:47;;;;;;;3.47;2.25;;;;;;;;;;5035332;28;20026;-67
2023/07/22 00:58:12;;;;;;;4.07;2.30;;;;;;;;;;5067255;28;20040;-66
2023/07/22 01:00:38;;;;;;;5.60;2.40;;;;;;;;;;5035421;28;20028;-66
2023/07/22 01:03:04;;;;;;;3.53;2.50;;;;;;;;;;5035414;28;20036;-66
2023/07/22 01:05:30;;;;;;;3.70;2.40;;;;;;;;;;5034568;28;20056;-66
2023/07/22 01:07:56;;;;;;;3.40;2.45;;;;;;;;;;5035157;28;20033;-66
2023/07/22 01:10:22;;;;;;;3.85;2.38;;;;;;;;;;5035198;28;20025;-70
2023/07/22 01:12:48;;;;;;;4.20;2.75;;;;;;;;;;5034926;28;20025;-65
2023/07/22 01:15:13;;;;;;;3.33;2.40;;;;;;;;;;5035176;28;20023;-70
2023/07/22 01:17:40;;;;;;;4.65;2.40;;;;;;;;;;5035088;28;20033;-70
2023/07/22 01:20:06;;;;;;;3.33;2.33;;;;;;;;;;5034648;28;20052;-66
2023/07/22 01:22:36;;;;;;;3.50;2.13;;;;;;;;;;5035162;28;20029;-69
2023/07/22 01:25:02;;;;;;;3.67;2.40;;;;;;;;;;5034769;28;20021;-68
2023/07/22 01:27:27;;;;;;;3.25;2.55;;;;;;;;;;5034835;28;20127;-68
2023/07/22 01:29:53;;;;;;;3.67;2.50;;;;;;;;;;5034835;28;20022;-69
2023/07/22 01:32:19;;;;;;;3.55;2.58;;;;;;;;;;5034254;28;20100;-71
2023/07/22 01:34:45;;;;;;;3.13;2.22;;;;;;;;;;5034223;28;20029;-66
2023/07/22 01:37:11;;;;;;;4.60;2.58;;;;;;;;;;5034747;28;20030;-69
2023/07/22 01:39:36;;;;;;;4.10;2.40;;;;;;;;;;5034541;28;20026;-67
2023/07/22 01:42:02;;;;;;;3.30;2.60;;;;;;;;;;5034523;28;20053;-66
2023/07/22 01:44:28;;;;;;;4.13;2.75;;;;;;;;;;5034558;28;20175;-74
2023/07/22 01:46:54;;;;;;;4.32;2.85;;;;;;;;;;5034346;28;20036;-74
2023/07/22 01:49:19;;;;;;;4.07;2.60;;;;;;;;;;5034136;28;20056;-75
2023/07/22 01:51:45;;;;;;;4.32;2.72;;;;;;;;;;5034268;28;20021;-74
2023/07/22 01:54:12;;;;;;;6.13;2.80;;;;;;;;;;5034217;28;20123;-73
2023/07/22 01:56:38;;;;;;;5.63;4.15;;;;;;;;;;5034332;28;20022;-75
2023/07/22 01:59:04;;;;;;;6.30;3.33;;;;;;;;;;5034209;28;20044;-75
2023/07/22 02:01:30;;;;;;;3.60;2.70;;;;;;;;;;5034241;28;20057;-75
2023/07/22 02:03:55;;;;;;;3.70;2.72;;;;;;;;;;5033841;28;20052;-74
2023/07/22 02:06:21;;;;;;;6.32;2.55;;;;;;;;;;5033781;28;20044;-73
2023/07/22 02:08:46;;;;;;;4.45;2.42;;;;;;;;;;5034036;28;20514;-72
2023/07/22 02:11:12;;;;;;;3.88;2.70;;;;;;;;;;5034128;28;20047;-71
2023/07/22 02:13:38;;;;;;;4.10;2.55;;;;;;;;;;5033914;28;20053;-74
2023/07/22 02:16:04;;;;;;;3.28;2.88;;;;;;;;;;5033965;28;20438;-72
2023/07/22 02:18:29;;;;;;;3.38;2.65;;;;;;;;;;5033770;28;20021;-74
2023/07/22 02:20:56;;;;;;;4.60;2.67;;;;;;;;;;5033685;28;20033;-67
2023/07/22 02:23:22;;;;;;;5.00;2.80;;;;;;;;;;5033751;28;20029;-66
2023/07/22 02:25:52;;;;;;;4.00;2.85;;;;;;;;;;5033638;28;20029;-67
2023/07/22 02:28:21;;;;;;;4.47;2.80;;;;;;;;;;5033720;28;20029;-73
2023/07/22 02:31:02;;;;;;;3.00;2.63;;;;;;;;;;5033456;28;20095;-71
2023/07/22 02:33:27;;;;;;;;;;;;;;;;;;5033790;28;20025;-66
2023/07/22 02:35:53;;;;;;;4.15;2.67;;;;;;;;;;5033406;28;19913;-67
2023/07/22 02:38:18;;;;;;;4.05;2.88;;;;;;;;;;5033542;28;20418;-68
2023/07/22 02:40:43;;;;;;;5.13;3.35;;;;;;;;;;5033372;28;20030;-68
2023/07/22 02:43:09;;;;;;;4.55;3.20;;;;;;;;;;5033395;28;20032;-66
2023/07/22 02:45:34;;;;;;;5.10;3.30;;;;;;;;;;5032600;28;20021;-66
2023/07/22 02:48:00;;;;;;;3.53;2.90;;;;;;;;;;5032904;28;20045;-66
2023/07/22 02:50:26;;;;;;;4.13;3.08;;;;;;;;;;5033139;28;20387;-75
2023/07/22 02:52:51;;;;;;;3.63;2.80;;;;;;;;;;5032800;28;20072;-70
2023/07/22 02:55:20;;;;;;;4.38;2.83;;;;;;;;;;5033256;28;20033;-66
2023/07/22 02:57:47;;;;;;;4.32;3.17;;;;;;;;;;5033033;28;20017;-67
2023/07/22 03:00:20;;;;;;;3.80;3.00;;;;;;;;;;5033173;28;20483;-68
2023/07/22 03:02:46;;;;;;;4.45;3.67;;;;;;;;;;5032920;28;20422;-66
2023/07/22 03:05:11;;;;;;;5.32;3.10;;;;;;;;;;5032447;28;20083;-67
2023/07/22 03:07:38;;;;;;;4.05;3.22;;;;;;;;;;5033070;28;20029;-69
2023/07/22 03:10:05;;;;;;;5.03;3.00;;;;;;;;;;5032943;28;20036;-69
2023/07/22 03:12:31;;;;;;;3.85;3.20;;;;;;;;;;5032891;28;20175;-75
2023/07/22 03:14:56;;;;;;;4.13;3.40;;;;;;;;;;5032683;28;20111;-71
2023/07/22 03:17:22;;;;;;;4.47;3.33;;;;;;;;;;5032593;28;20026;-70
2023/07/22 03:19:47;;;;;;;4.57;3.40;;;;;;;;;;5032597;28;20100;-73
2023/07/22 03:22:15;;;;;;;6.63;3.72;;;;;;;;;;5031372;28;20056;-74
2023/07/22 03:24:41;;;;;;;4.75;3.40;;;;;;;;;;5032595;28;20041;-71
2023/07/22 03:27:07;;;;;;;4.53;3.38;;;;;;;;;;5032608;28;20026;-73
2023/07/22 03:29:32;;;;;;;3.88;3.13;;;;;;;;;;5032416;28;20025;-68
2023/07/22 03:31:59;;;;;;;3.45;2.92;;;;;;;;;;5032321;28;20108;-72
2023/07/22 03:34:28;;;;;;;4.22;3.40;;;;;;;;;;5032374;28;20393;-75
2023/07/22 03:36:54;;;;;;;4.35;3.80;;;;;;;;;;5032486;28;20478;-71
2023/07/22 03:39:20;;;;;;;4.95;3.63;;;;;;;;;;5032694;28;20041;-73
2023/07/22 03:41:45;;;;;;;5.57;3.58;;;;;;;;;;5032182;28;20057;-68
2023/07/22 03:44:11;;;;;;;4.95;3.47;;;;;;;;;;5032418;28;20098;-67
2023/07/22 03:46:37;;;;;;;4.90;3.60;;;;;;;;;;5032263;28;20036;-68
2023/07/22 03:49:03;;;;;;;4.32;3.92;;;;;;;;;;5064304;28;20045;-66
2023/07/22 03:51:28;;;;;;;6.25;3.72;;;;;;;;;;5032420;28;20399;-69
2023/07/22 03:53:54;;;;;;;5.22;3.95;;;;;;;;;;5032492;28;20061;-68
2023/07/22 03:56:20;;;;;;;4.55;3.55;;;;;;;;;;5036833;28;20032;-66
2023/07/22 03:58:46;;;;;;;6.70;3.97;;;;;;;;;;5038578;28;20025;-66
2023/07/22 04:01:12;;;;;;;5.43;3.47;;;;;;;;;;5038950;28;20029;-67
2023/07/22 04:03:37;;;;;;;4.85;3.53;;;;;;;;;;5039022;28;20033;-65
2023/07/22 04:06:03;;;;;;;5.63;3.60;;;;;;;;;;5038469;28;20028;-67
2023/07/22 04:08:28;;;;;;;6.03;3.83;;;;;;;;;;5038924;28;20029;-65
2023/07/22 04:10:55;;;;;;;4.75;3.90;;;;;;;;;;5038705;28;20447;-66
2023/07/22 04:13:22;;;;;;;6.60;3.70;;;;;;;;;;5038493;28;20026;-66
2023/07/22 04:15:47;;;;;;;5.63;4.07;;;;;;;;;;5038673;28;20202;-66
2023/07/22 04:18:15;;;;;;;4.88;3.97;;;;;;;;;;5038660;28;20535;-66
2023/07/22 04:20:41;;;;;;;5.80;4.15;;;;;;;;;;5070740;28;20499;-69
2023/07/22 04:23:06;;;;;;;5.88;3.97;;;;;;;;;;5038779;28;20044;-66
2023/07/22 04:25:32;;;;;;;6.80;4.53;;;;;;;;;;5038654;28;20083;-66
2023/07/22 04:27:57;;;;;;;7.47;4.60;;;;;;;;;;5038316;28;20112;-68
2023/07/22 04:30:24;;;;;;;11.60;4.38;;;;;;;;;;5038782;28;20027;-69
2023/07/22 04:32:50;;;;;;;6.18;4.97;;;;;;;;;;5038418;28;20026;-68
2023/07/22 04:35:17;;;;;;;5.30;3.90;;;;;;;;;;5038750;28;20546;-66
2023/07/22 04:37:45;;;;;;;5.30;4.10;;;;;;;;;;5038395;28;20431;-65
2023/07/22 04:40:14;;;;;;;5.60;3.78;;;;;;;;;;5038647;28;20057;-67
2023/07/22 04:42:41;;;;;;;4.35;3.40;;;;;;;;;;5038226;28;20060;-66
2023/07/22 04:45:08;;;;;;;5.57;3.53;;;;;;;;;;5038514;28;20056;-68
2023/07/22 04:47:33;;;;;;;4.47;3.47;;;;;;;;;;5038202;28;20029;-66
2023/07/22 04:49:59;;;;;;;5.00;3.47;;;;;;;;;;5038395;28;20340;-66
2023/07/22 04:52:24;;;;;;;5.82;3.33;;;;;;;;;;5038387;28;20029;-65
2023/07/22 04:54:50;;;;;;;3.75;3.25;;;;;;;;;;5038298;28;20029;-66
2023/07/22 04:57:16;;;;;;;4.72;3.38;;;;;;;;;;5038375;28;20529;-67
2023/07/22 04:59:42;;;;;;;5.80;3.20;;;;;;;;;;5038338;28;20364;-66
2023/07/22 05:02:07;;;;;;;4.35;3.47;;;;;;;;;;5038384;28;20025;-68
2023/07/22 05:04:33;;;;;;;5.18;2.97;;;;;;;;;;5038429;28;20112;-66
2023/07/22 05:06:58;;;;;;;3.65;2.80;;;;;;;;;;5036255;28;20127;-66
2023/07/22 05:09:24;;;;;;;5.78;2.75;;;;;;;;;;5035307;28;20036;-67
2023/07/22 05:11:49;;;;;;;3.53;2.80;;;;;;;;;;5035046;28;20033;-71
2023/07/22 05:14:15;;;;;;;4.40;2.75;;;;;;;;;;5035052;28;20043;-66
2023/07/22 05:16:40;;;;;;;4.13;2.50;;;;;;;;;;5034861;28;20039;-66
2023/07/22 05:19:07;;;;;;;3.92;2.58;;;;;;;;;;5035008;28;20049;-67
2023/07/22 05:21:33;;;;;;;6.95;2.33;;;;;;;;;;5034930;28;20112;-66
2023/07/22 05:23:58;;;;;;;4.05;2.50;;;;;;;;;;5034994;28;20113;-69
2023/07/22 05:26:24;;;;;;;3.45;2.60;;;;;;;;;;5034730;28;20032;-66
2023/07/22 05:28:49;;;;;;;3.88;2.50;;;;;;;;;;5034794;28;20032;-66
2023/07/22 05:31:16;;;;;;;4.80;2.70;;;;;;;;;;5034844;28;20025;-66
2023/07/22 05:33:41;;;;;;;2.80;2.15;;;;;;;;;;5034685;28;20037;-67
2023/07/22 05:36:07;;;;;;;4.18;2.20;;;;;;;;;;5034554;28;20386;-67
2023/07/22 05:38:32;;;;;;;7.90;2.50;;;;;;;;;;5034775;28;20079;-66
2023/07/22 05:40:58;;;;;;;4.53;2.70;;;;;;;;;;5033098;28;20021;-68
2023/07/22 05:43:23;;;;;;;4.03;2.55;;;;;;;;;;5034588;28;20112;-67
2023/07/22 05:45:49;;;;;;;5.72;2.20;;;;;;;;;;5034522;28;20393;-68
2023/07/22 05:48:14;;;;;;;4.47;2.50;;;;;;;;;;5034355;28;20103;-66
2023/07/22 05:50:40;;;;;;;4.15;2.63;;;;;;;;;;5034339;28;20017;-71
2023/07/22 05:53:06;;;;;;;3.60;2.50;;;;;;;;;;5034204;28;20080;-66
2023/07/22 05:55:32;;;;;;;4.20;2.47;;;;;;;;;;5034049;28;20032;-74
2023/07/22 05:57:57;;;;;;;4.88;2.75;;;;;;;;;;5034285;28;20474;-72
2023/07/22 06:00:22;;;;;;;4.53;2.45;;;;;;;;;;5034330;28;20084;-74
2023/07/22 06:02:48;;;;;;;3.70;2.78;;;;;;;;;;5034242;28;20017;-76
2023/07/22 06:05:14;;;;;;;4.68;2.50;;;;;;;;;;5033814;28;20033;-73
2023/07/22 06:07:39;;;;;;;4.22;2.50;;;;;;;;;;5034035;28;20022;-74
2023/07/22 06:10:05;;;;;;;13.68;3.30;;;;;;;;;;5033953;28;20386;-67
2023/07/22 06:12:31;;;;;;;5.63;2.83;;;;;;;;;;5034077;28;20022;-71
2023/07/22 06:14:56;;;;;;;4.97;2.80;;;;;;;;;;5038449;28;20040;-70
2023/07/22 06:17:21;;;;;;;5.10;2.97;;;;;;;;;;5050001;28;20025;-73
2023/07/22 06:19:47;;;;;;;4.82;3.10;;;;;;;;;;5044809;28;20028;-68
2023/07/22 06:22:13;;;;;;;5.35;2.80;;;;;;;;;;5033767;28;20044;-67
2023/07/22 06:24:38;;;;;;;7.25;3.50;;;;;;;;;;5033557;28;20056;-66
2023/07/22 06:27:04;;;;;;;3.50;2.40;;;;;;;;;;5033781;28;20371;-67
2023/07/22 06:29:29;;;;;;;5.97;2.40;;;;;;;;;;5033554;28;20037;-66
2023/07/22 06:31:55;;;;;;;4.65;2.70;;;;;;;;;;5033353;28;20025;-66
2023/07/22 06:34:20;;;;;;;3.67;2.88;;;;;;;;;;5033436;28;20250;-69
2023/07/22 06:36:45;;;;;;;5.85;2.92;;;;;;;;;;5033443;28;20505;-66
2023/07/22 06:39:11;;;;;;;3.80;2.70;;;;;;;;;;5033275;28;20387;-66
2023/07/22 06:41:36;;;;;;;6.30;2.78;;;;;;;;;;5033379;28;20029;-68
2023/07/22 06:44:02;;;;;;;5.63;2.83;;;;;;;;;;5033413;28;20033;-66
2023/07/22 06:46:27;;;;;;;5.22;2.85;;;;;;;;;;5033312;28;20044;-66
2023/07/22 06:48:53;;;;;;;4.65;2.60;;;;;;;;;;5032811;28;20120;-66
2023/07/22 06:51:18;;;;;;;8.77;2.50;;;;;;;;;;5033094;28;20060;-67
2023/07/22 06:53:43;;;;;;;4.72;2.05;;;;;;;;;;5032784;28;20029;-66
2023/07/22 06:56:09;;;;;;;5.63;2.10;;;;;;;;;;5033096;28;20029;-66
2023/07/22 06:58:34;;;;;;;5.65;2.42;;;;;;;;;;5033024;28;20017;-72
2023/07/22 07:01:00;;;;;;;5.70;2.00;;;;;;;;;;5033014;28;20079;-69
2023/07/22 07:03:25;;;;;;;6.47;2.05;;;;;;;;;;5033098;28;20025;-73
2023/07/22 07:05:54;;;;;;;5.38;2.15;;;;;;;;;;5032614;28;20029;-74
2023/07/22 07:08:20;;;;;;;4.95;2.20;;;;;;;;;;5033102;28;20021;-74
2023/07/22 07:10:46;;;;;;;5.50;2.40;;;;;;;;;;5033843;28;20024;-66
2023/07/22 07:13:11;;;;;;;3.80;2.08;;;;;;;;;;5033175;28;20455;-67
2023/07/22 07:15:36;;;;;;;4.05;2.15;;;;;;;;;;5032775;28;20111;-66
2023/07/22 07:18:02;;;;;;;5.15;2.00;;;;;;;;;;5032626;28;20111;-65
2023/07/22 07:20:27;;;;;;;5.43;1.75;;;;;;;;;;5032490;28;20057;-70
2023/07/22 07:22:53;;;;;;;7.68;2.00;;;;;;;;;;5032357;28;20029;-66
2023/07/22 07:25:18;;;;;;;3.90;1.70;;;;;;;;;;5032614;28;20026;-67
2023/07/22 07:27:43;;;;;;;4.03;1.85;;;;;;;;;;5032837;28;20034;-66
2023/07/22 07:30:09;;;;;;;3.75;1.92;;;;;;;;;;5032353;28;20056;-68
2023/07/22 07:32:35;;;;;;;4.60;2.08;;;;;;;;;;5032515;28;20463;-68
2023/07/22 07:35:01;;;;;;;3.67;1.55;;;;;;;;;;5033454;28;20107;-67
2023/07/22 07:37:26;;;;;;;4.50;1.98;;;;;;;;;;5032496;28;20071;-65
2023/07/22 07:39:52;;;;;;;3.83;1.75;;;;;;;;;;5032345;28;20040;-67
2023/07/22 07:42:18;;;;;;;3.90;1.50;;;;;;;;;;5032411;28;20070;-64
2023/07/22 07:44:43;;;;;;;4.10;2.00;;;;;;;;;;5032165;28;20101;-66
2023/07/22 07:47:09;;;;;;;5.40;1.70;;;;;;;;;;5032278;28;20133;-66
2023/07/22 07:49:34;;;;;;;5.45;1.83;;;;;;;;;;5031986;28;20088;-69
2023/07/22 07:52:00;;;;;;;3.42;2.03;;;;;;;;;;5031833;28;20057;-66
2023/07/22 07:54:25;;;;;;;4.55;1.67;;;;;;;;;;5032018;28;20025;-66
2023/07/22 07:56:50;;;;;;;4.15;2.03;;;;;;;;;;5031291;28;20097;-70
2023/07/22 07:59:16;;;;;;;6.53;1.90;;;;;;;;;;5032645;28;20060;-66
2023/07/22 08:01:41;;;;;;;3.90;2.15;;;;;;;;;;5032147;28;20164;-66
2023/07/22 08:04:08;;;;;;;3.42;1.80;;;;;;;;;;5031955;28;20033;-67
2023/07/22 08:06:33;;;;;;;3.05;1.90;;;;;;;;;;5031731;28;20033;-66
2023/07/22 08:08:59;;;;;;;4.40;1.90;;;;;;;;;;5032151;28;20469;-66
2023/07/22 08:11:24;;;;;;;5.45;1.80;;;;;;;;;;5032084;28;20021;-70
2023/07/22 08:13:51;;;;;;;4.53;2.13;;;;;;;;;;5032123;28;20040;-66
2023/07/22 08:16:17;;;;;;;5.82;2.20;;;;;;;;;;5032154;28;20505;-70
2023/07/22 08:18:43;;;;;;;5.90;2.42;;;;;;;;;;5032286;28;20104;-69
2023/07/22 08:21:09;;;;;;;5.50;2.10;;;;;;;;;;5032187;28;20064;-70
2023/07/22 08:23:36;;;;;;;8.82;2.72;;;;;;;;;;5032354;28;20045;-70
2023/07/22 08:26:04;;;;;;;5.20;2.28;;;;;;;;;;5032061;28;20119;-70
2023/07/22 08:28:30;;;;;;;5.53;2.42;;;;;;;;;;5032007;28;20026;-66
2023/07/22 08:30:56;;;;;;;4.53;2.20;;;;;;;;;;5032061;28;20036;-66
2023/07/22 08:33:22;;;;;;;3.17;2.10;;;;;;;;;;5031995;28;20036;-66
2023/07/22 08:35:47;;;;;;;9.02;2.20;;;;;;;;;;5031747;28;20025;-71
2023/07/22 08:38:13;;;;;;;5.13;2.30;;;;;;;;;;5031971;28;20021;-66
2023/07/22 08:40:40;;;;;;;5.70;2.72;;;;;;;;;;5031858;28;20489;-67
2023/07/22 08:43:08;;;;;;;4.22;2.38;;;;;;;;;;5032532;28;20041;-66
2023/07/22 08:45:36;;;;;;;6.70;2.53;;;;;;;;;;5035615;28;20025;-66
2023/07/22 08:48:09;;;;;;;5.20;2.47;;;;;;;;;;5035404;28;20128;-66
2023/07/22 08:50:43;;;;;;;5.65;2.47;;;;;;;;;;5035364;28;20052;-67
2023/07/22 08:53:11;;;;;;;9.82;2.60;;;;;;;;;;5035627;28;20483;-67
2023/07/22 08:55:39;;;;;;;6.18;2.40;;;;;;;;;;5035613;28;20041;-66
2023/07/22 08:58:08;;;;;;;7.75;2.15;;;;;;;;;;5035265;28;20021;-67
2023/07/22 09:00:34;;;;;;;6.07;2.60;;;;;;;;;;5035275;28;20029;-66
2023/07/22 09:02:59;;;;;;;5.88;2.25;;;;;;;;;;5035175;28;20021;-65
2023/07/22 09:05:26;;;;;;;4.32;2.30;;;;;;;;;;5034738;28;20478;-66
2023/07/22 09:07:52;;;;;;;4.78;2.38;;;;;;;;;;5033642;28;20117;-67
2023/07/22 09:10:19;;;;;;;6.88;2.55;;;;;;;;;;5035309;28;20025;-66
2023/07/22 09:12:45;;;;;;;6.80;2.35;;;;;;;;;;5033815;28;20022;-67
2023/07/22 09:15:12;;;;;;;4.25;2.78;;;;;;;;;;5035093;28;20091;-67
2023/07/22 09:17:39;;;;;;;8.10;2.83;;;;;;;;;;5035147;28;20081;-66
2023/07/22 09:20:05;;;;;;;5.10;2.78;;;;;;;;;;5034721;28;20022;-65
2023/07/22 09:22:31;;;;;;;6.40;3.03;;;;;;;;;;5035154;28;20113;-65
2023/07/22 09:25:14;;;;;;;5.05;2.75;;;;;;;;;;5034746;28;20087;-66
2023/07/22 09:27:40;;;;;;;5.05;2.70;;;;;;;;;;5034750;28;20044;-66
2023/07/22 09:30:20;;;;;;;5.93;3.08;;;;;;;;;;5034734;28;20524;-68
2023/07/22 09:32:45;;;;;;;6.47;2.78;;;;;;;;;;5034471;28;20026;-66
2023/07/22 09:35:10;;;;;;;5.43;2.65;;;;;;;;;;5034753;28;20044;-66
2023/07/22 09:37:37;;;;;;;4.43;2.88;;;;;;;;;;5034682;28;20105;-66
2023/07/22 09:40:13;;;;;;;7.30;2.45;;;;;;;;;;5034102;28;20108;-66
2023/07/22 09:42:39;;;;;;;5.78;2.33;;;;;;;;;;5034520;28;20033;-66
2023/07/22 09:45:05;;;;;;;3.90;2.10;;;;;;;;;;5034492;28;20029;-65
2023/07/22 09:47:40;;;;;;;5.13;2.65;;;;;;;;;;5034165;28;20104;-66
2023/07/22 09:50:06;;;;;;;4.35;2.58;;;;;;;;;;5034720;28;20034;-66
2023/07/22 09:52:32;;;;;;;9.70;3.17;;;;;;;;;;5034397;28;20021;-66
2023/07/22 09:54:59;;;;;;;3.30;2.10;;;;;;;;;;5033984;28;20091;-66
2023/07/22 09:57:25;;;;;;;3.72;1.95;;;;;;;;;;5034981;28;20108;-74
2023/07/22 09:59:52;;;;;;;4.70;2.10;;;;;;;;;;5035351;28;20026;-72
2023/07/22 10:02:20;;;;;;;4.82;2.33;;;;;;;;;;5035185;28;20033;-73
2023/07/22 10:04:46;;;;;;;4.80;2.00;;;;;;;;;;5034098;28;20108;-71
2023/07/22 10:07:13;;;;;;;9.05;2.47;;;;;;;;;;5033753;28;20117;-74
2023/07/22 10:09:40;;;;;;;4.53;2.08;;;;;;;;;;5034221;28;20067;-73
2023/07/22 10:12:06;;;;;;;3.53;2.13;;;;;;;;;;5035041;28;20087;-72
2023/07/22 10:14:32;;;;;;;4.35;2.35;;;;;;;;;;5034897;28;20504;-73
2023/07/22 10:16:59;;;;;;;6.03;2.50;;;;;;;;;;5034235;28;20108;-74
2023/07/22 10:19:25;;;;;;;4.68;2.03;;;;;;;;;;5035034;28;20104;-65
2023/07/22 10:21:51;;;;;;;3.53;2.05;;;;;;;;;;5034108;28;20026;-65
2023/07/22 10:24:18;;;;;;;2.47;1.55;;;;;;;;;;5033917;28;20151;-70
2023/07/22 10:26:45;;;;;;;3.50;1.70;;;;;;;;;;5033814;28;20025;-66
2023/07/22 10:29:12;;;;;;;4.63;1.58;;;;;;;;;;5033743;28;20025;-69
2023/07/22 10:31:38;;;;;;;2.08;1.25;;;;;;;;;;5033655;28;20025;-65
2023/07/22 10:34:03;;;;;;;2.35;1.38;;;;;;;;;;5033720;28;20030;-62
2023/07/22 10:36:30;;;;;;;5.28;1.58;;;;;;;;;;5033758;28;20463;-62
2023/07/22 10:38:57;;;;;;;4.25;1.92;;;;;;;;;;5033408;28;20386;-63
2023/07/22 10:41:23;;;;;;;5.32;1.50;;;;;;;;;;5033543;28;20099;-63
2023/07/22 10:43:57;;;;;;;5.72;1.50;;;;;;;;;;5033547;28;20474;-62
2023/07/22 10:46:56;;;;;;;3.90;1.58;;;;;;;;;;5033259;28;20057;-63
2023/07/22 10:49:22;;;;;;;3.13;1.38;;;;;;;;;;5033225;28;20107;-64
2023/07/22 10:51:49;;;;;;;2.63;1.30;;;;;;;;;;5033250;28;20038;-63
2023/07/22 10:54:15;;;;;;;3.03;1.55;;;;;;;;;;5033151;28;20108;-64
2023/07/22 10:56:44;;;;;;;4.70;1.40;;;;;;;;;;5033418;28;20026;-62
2023/07/22 10:59:11;;;;;;;3.08;1.35;;;;;;;;;;5033409;28;20076;-63
2023/07/22 11:01:38;;;;;;;2.60;1.23;;;;;;;;;;5033097;28;20109;-67
2023/07/22 11:04:13;;;;;;;2.47;1.30;;;;;;;;;;5033065;28;20426;-67
2023/07/22 11:06:46;;;;;;;2.88;1.30;;;;;;;;;;5032079;28;20540;-70
2023/07/22 11:09:35;;;;;;;2.40;1.38;;;;;;;;;;5033113;28;20057;-70
2023/07/22 11:12:08;;;;;;;9.25;1.60;;;;;;;;;;5033119;28;20029;-69
2023/07/22 11:14:44;;;;;;;3.17;1.20;;;;;;;;;;5032552;28;20034;-66
2023/07/22 11:17:10;;;;;;;4.72;1.40;;;;;;;;;;5064977;28;20076;-72
2023/07/22 11:19:36;;;;;;;2.03;1.40;;;;;;;;;;5032633;28;20025;-68
2023/07/22 11:22:03;;;;;;;2.75;1.20;;;;;;;;;;5032774;28;20112;-70
2023/07/22 11:24:29;;;;;;;3.45;1.40;;;;;;;;;;5032524;28;20025;-73
2023/07/22 11:26:54;;;;;;;2.95;1.50;;;;;;;;;;5032905;28;20029;-68
2023/07/22 11:29:20;;;;;;;2.75;1.10;;;;;;;;;;5032763;28;20371;-74
2023/07/22 11:31:47;;;;;;;2.55;1.30;;;;;;;;;;5032789;28;20060;-70
2023/07/22 11:34:23;;;;;;;2.90;1.38;;;;;;;;;;5032720;28;20540;-73
2023/07/22 11:36:53;;;;;;;4.93;1.27;;;;;;;;;;5032583;28;20030;-72
2023/07/22 11:39:23;;;;;;;4.70;1.37;;;;;;;;;;5032838;28;20036;-73
2023/07/22 11:41:49;;;;;;;3.13;1.25;;;;;;;;;;5034461;28;20800;-74
2023/07/22 11:44:18;;;;;;;3.00;1.30;;;;;;;;;;5032816;28;20056;-71
2023/07/22 11:46:57;;;;;;;1.83;1.10;;;;;;;;;;5035595;28;20503;-73
2023/07/22 11:49:24;;;;;;;2.80;1.65;;;;;;;;;;5036190;28;20052;-74
2023/07/22 11:51:49;;;;;;;3.97;1.30;;;;;;;;;;5034066;28;20113;-72
2023/07/22 11:54:17;;;;;;;4.38;1.30;;;;;;;;;;5034084;28;20116;-73
2023/07/22 11:56:43;;;;;;;2.92;1.50;;;;;;;;;;5045978;28;20505;-74
2023/07/22 11:59:08;;;;;;;2.70;1.30;;;;;;;;;;5051808;28;20404;-74
2023/07/22 12:01:34;;;;;;;3.70;1.15;;;;;;;;;;5047389;28;20029;-69
2023/07/22 12:04:00;;;;;;;3.83;1.40;;;;;;;;;;5032142;28;20434;-72
2023/07/22 12:06:26;;;;;;;3.95;1.10;;;;;;;;;;5031945;28;20029;-70
2023/07/22 12:08:52;;;;;;;3.85;1.00;;;;;;;;;;5033030;28;20044;-66
2023/07/22 12:11:18;;;;;;;3.65;1.58;;;;;;;;;;5035515;28;20037;-68
2023/07/22 12:13:46;;;;;;;2.97;1.30;;;;;;;;;;5031775;28;20036;-66
2023/07/22 12:16:12;;;;;;;1.77;1.10;;;;;;;;;;5032733;28;20037;-71
2023/07/22 12:18:47;;;;;;;1.88;1.20;;;;;;;;;;5035470;28;20036;-66
2023/07/22 12:21:13;;;;;;;2.70;1.30;;;;;;;;;;5035838;28;20033;-66
2023/07/22 12:23:39;;;;;;;1.98;1.20;;;;;;;;;;5036024;28;20076;-66
2023/07/22 12:26:05;;;;;;;2.10;1.20;;;;;;;;;;5035646;28;20034;-74
2023/07/22 12:28:31;;;;;;;6.20;1.40;;;;;;;;;;5036010;28;20021;-77
2023/07/22 12:30:57;;;;;;;2.38;1.27;;;;;;;;;;5067697;28;20029;-70
2023/07/22 12:33:26;;;;;;;2.47;1.35;;;;;;;;;;5035855;28;20037;-77
2023/07/22 12:35:56;;;;;;;2.47;1.17;;;;;;;;;;5036113;28;20463;-78
2023/07/22 12:38:21;;;;;;;5.25;1.17;;;;;;;;;;5035929;28;20474;-75
2023/07/22 12:40:47;;;;;;;3.17;1.25;;;;;;;;;;5035744;28;20040;-76
2023/07/22 12:43:12;;;;;;;4.13;1.10;;;;;;;;;;5036006;28;20466;-77
2023/07/22 12:45:38;;;;;;;3.50;1.23;;;;;;;;;;5034393;28;20045;-67
2023/07/22 12:48:05;;;;;;;4.78;1.20;;;;;;;;;;5035695;28;20442;-67
2023/07/22 12:50:31;;;;;;;2.85;1.10;;;;;;;;;;5035455;28;20030;-66
2023/07/22 12:52:57;;;;;;;3.80;1.27;;;;;;;;;;5035339;28;20048;-66
2023/07/22 12:55:23;;;;;;;2.53;1.40;;;;;;;;;;5035153;28;20033;-67
2023/07/22 12:57:48;;;;;;;3.08;1.20;;;;;;;;;;5035533;28;20025;-69
2023/07/22 13:00:14;;;;;;;4.28;1.40;;;;;;;;;;5035428;28;20048;-68
2023/07/22 13:02:39;;;;;;;2.85;1.10;;;;;;;;;;5035544;28;20030;-66
2023/07/22 13:05:06;;;;;;;1.70;1.00;;;;;;;;;;5035258;28;20036;-67
2023/07/22 13:07:32;;;;;;;3.33;1.38;;;;;;;;;;5035244;28;20454;-67
2023/07/22 13:10:00;;;;;;;2.28;1.10;;;;;;;;;;5035211;28;20028;-66
2023/07/22 13:12:25;;;;;;;2.53;1.33;;;;;;;;;;5043085;28;20040;-73
2023/07/22 13:14:51;;;;;;;3.65;1.20;;;;;;;;;;5044386;28;20037;-66
2023/07/22 13:17:16;;;;;;;2.97;1.40;;;;;;;;;;5044076;28;20478;-68
2023/07/22 13:19:41;;;;;;;4.95;1.40;;;;;;;;;;5044436;28;20071;-69
2023/07/22 13:22:07;;;;;;;2.17;1.20;;;;;;;;;;5040126;28;20037;-72
2023/07/22 13:24:32;;;;;;;4.53;1.25;;;;;;;;;;5044884;28;20033;-70
2023/07/22 13:26:58;;;;;;;2.20;1.08;;;;;;;;;;5035472;28;20030;-64
2023/07/22 13:29:23;;;;;;;2.78;1.25;;;;;;;;;;5034681;28;20419;-64
2023/07/22 13:31:49;;;;;;;2.78;1.17;;;;;;;;;;5035432;28;20036;-66
2023/07/22 13:34:15;;;;;;;3.58;1.40;;;;;;;;;;5034901;28;20119;-65
2023/07/22 13:36:40;;;;;;;3.50;1.50;;;;;;;;;;5034877;28;20394;-65
2023/07/22 13:39:06;;;;;;;3.83;1.50;;;;;;;;;;5034894;28;20164;-66
2023/07/22 13:41:31;;;;;;;3.42;1.30;;;;;;;;;;5034795;28;20060;-66
2023/07/22 13:43:57;;;;;;;5.07;1.40;;;;;;;;;;5043074;28;20025;-67
2023/07/22 13:46:22;;;;;;;3.25;1.40;;;;;;;;;;5054627;28;20033;-66
2023/07/22 13:48:48;;;;;;;1.60;1.10;;;;;;;;;;5053519;28;20040;-66
2023/07/22 13:51:13;;;;;;;2.92;1.40;;;;;;;;;;5044808;28;20040;-66
2023/07/22 13:53:39;;;;;;;3.92;1.40;;;;;;;;;;5033969;28;20036;-64
2023/07/22 13:56:04;;;;;;;3.08;1.48;;;;;;;;;;5033822;28;20091;-67
2023/07/22 13:58:30;;;;;;;10.70;1.55;;;;;;;;;;5032593;28;20049;-67
2023/07/22 14:00:55;;;;;;;7.03;1.67;;;;;;;;;;5037138;28;20443;-65
2023/07/22 14:03:20;;;;;;;4.10;1.52;;;;;;;;;;5052353;28;20032;-69
2023/07/22 14:05:46;;;;;;;4.15;1.33;;;;;;;;;;5047156;28;20068;-68
2023/07/22 14:08:12;;;;;;;2.47;1.27;;;;;;;;;;5032550;28;20453;-73
2023/07/22 14:10:37;;;;;;;7.65;1.80;;;;;;;;;;5033840;28;20490;-73
2023/07/22 14:13:03;;;;;;;2.47;1.50;;;;;;;;;;5032632;28;20108;-74
2023/07/22 14:15:28;;;;;;;1.88;1.17;;;;;;;;;;5033657;28;20470;-74
2023/07/22 14:17:54;;;;;;;4.70;1.27;;;;;;;;;;5033216;28;20022;-73
2023/07/22 14:20:19;;;;;;;2.97;1.90;;;;;;;;;;5032298;28;20022;-74
2023/07/22 14:22:45;;;;;;;2.90;1.30;;;;;;;;;;5032151;28;20072;-75
2023/07/22 14:25:10;;;;;;;2.33;1.30;;;;;;;;;;5032277;28;20087;-74
2023/07/22 14:27:38;;;;;;;3.95;1.30;;;;;;;;;;5032255;28;20394;-72
2023/07/22 14:30:05;;;;;;;3.55;1.45;;;;;;;;;;5032676;28;20033;-73
2023/07/22 14:32:31;;;;;;;2.47;1.23;;;;;;;;;;5032770;28;20367;-72
2023/07/22 14:34:56;;;;;;;3.22;1.45;;;;;;;;;;5033906;28;20030;-69
2023/07/22 14:37:22;;;;;;;3.05;1.25;;;;;;;;;;5033702;28;20030;-74
2023/07/22 14:39:48;;;;;;;2.80;1.23;;;;;;;;;;5032716;28;20112;-70